Stations météo

réclame
Mon MeteoGroup
Herwijnen aws, Pays-Bas (6356): Température de l'air & dewpoint: 14.11.2017 01:00:00 - 20.11.2017 01:00:00 (CET)Herwijnen aws, Pays-Bas (6356): Température de l'air 5cm: 14.11.2017 01:00:00 - 20.11.2017 01:00:00 (CET)Herwijnen aws, Pays-Bas (6356): Vitesse du vent & gusts: 14.11.2017 01:00:00 - 20.11.2017 01:00:00 (CET)Herwijnen aws, Pays-Bas (6356): Direction du vent: 14.11.2017 01:00:00 - 20.11.2017 01:00:00 (CET)Herwijnen aws, Pays-Bas (6356): reduced air pressure: 14.11.2017 01:00:00 - 20.11.2017 01:00:00 (CET)Herwijnen aws, Pays-Bas (6356): Quantités de précipitations: 14.11.2017 01:00:00 - 20.11.2017 01:00:00 (CET)
Date & Time tt [°C] td [°C] tt 5cm [°C] ff [km/h] ff [knt] fx [km/h] fx [knt] dd ppp [hPa] rr [mm]
20.11.2017 01:00:00 5,3 3,7 4,7 16 9 - - SW 1021,2 -
20.11.2017 00:00:00 6,0 4,1 5,5 11 6 14 8 SW 1021,4 0,0
19.11.2017 23:00:00 6,2 4,1 5,6 14 8 18 10 W 1021,5 0,0
19.11.2017 22:00:00 5,6 3,7 4,5 14 8 - - W 1021,7 0,0
19.11.2017 21:00:00 5,5 3,9 4,3 14 8 22 12 WSW 1021,1 0,1
19.11.2017 20:00:00 5,9 4,3 5,0 14 8 22 12 W 1020,9 0,4
19.11.2017 19:00:00 5,7 3,7 4,8 11 6 - - W 1020,4 0,4
19.11.2017 18:00:00 4,9 2,9 4,1 11 6 32 18 W 1020,1 0,1
19.11.2017 17:00:00 5,8 3,1 5,0 14 8 25 14 W 1019,7 0,0
19.11.2017 16:00:00 8,1 3,5 7,5 22 12 - - WNW 1019,2 0,0
19.11.2017 15:00:00 9,1 4,6 7,4 22 12 50 27 WNW 1019,0 0,0
19.11.2017 14:00:00 8,6 4,2 8,2 22 12 40 21 WNW 1018,7 0,0
19.11.2017 13:00:00 9,0 4,7 8,5 25 14 - - WNW 1018,4 0,1
19.11.2017 12:00:00 9,4 5,3 9,4 22 12 36 19 WNW 1018,2 0,0
19.11.2017 11:00:00 8,0 5,0 8,1 14 8 18 10 W 1018,1 0,0
19.11.2017 10:00:00 6,5 3,2 5,9 14 8 - - WNW 1017,7 0,0
19.11.2017 09:00:00 3,6 1,5 2,0 7 4 36 19 W 1017,2 0,0
19.11.2017 08:00:00 2,6 1,5 1,0 14 8 18 10 W 1016,7 0,0
19.11.2017 07:00:00 2,9 1,6 0,9 14 8 - - WSW 1016,3 0,3
19.11.2017 06:00:00 4,2 2,6 2,2 14 8 25 14 W 1016,0 0,0
19.11.2017 05:00:00 2,9 1,1 0,6 14 8 18 10 WSW 1016,0 0,0
19.11.2017 04:00:00 2,2 0,5 0,8 11 6 - - WSW 1015,8 0,0
19.11.2017 03:00:00 3,9 1,9 3,0 14 8 29 16 WNW 1015,7 0,0
19.11.2017 02:00:00 5,5 2,2 4,7 18 10 29 16 WNW 1015,8 0,0
19.11.2017 01:00:00 5,1 2,9 4,6 14 8 - - W 1015,4 0,0
19.11.2017 00:00:00 4,9 3,0 4,2 11 6 25 14 NNW 1016,0 0,0
18.11.2017 23:00:00 5,5 3,9 4,3 14 8 18 10 W 1015,6 0,0
18.11.2017 22:00:00 5,8 4,0 5,1 11 6 - - W 1015,9 0,0
18.11.2017 21:00:00 5,6 4,8 5,2 11 6 25 14 WSW 1016,2 0,0
18.11.2017 20:00:00 5,7 4,8 5,3 7 4 14 8 WSW 1016,4 0,3
18.11.2017 19:00:00 6,4 4,7 5,9 11 6 - - NW 1016,8 0,0
18.11.2017 18:00:00 7,1 5,0 6,3 11 6 25 14 NW 1017,0 0,0
18.11.2017 17:00:00 7,8 4,8 7,0 18 10 36 19 W 1016,8 0,0
18.11.2017 16:00:00 7,8 4,4 6,9 29 16 - - W 1016,9 0,0
18.11.2017 15:00:00 8,4 5,0 7,9 25 14 40 21 W 1017,0 0,0
18.11.2017 14:00:00 8,7 6,3 8,2 18 10 40 21 WSW 1017,5 0,1
18.11.2017 13:00:00 7,3 5,4 7,0 25 14 - - SW 1018,0 0,3
18.11.2017 12:00:00 7,3 4,4 7,1 25 14 40 21 SW 1018,4 0,0
18.11.2017 11:00:00 7,1 3,9 6,8 25 14 32 18 SW 1019,0 0,0
18.11.2017 10:00:00 6,6 3,7 6,6 22 12 - - SW 1019,4 0,0
18.11.2017 09:00:00 6,2 3,5 5,7 18 10 29 16 SW 1020,1 0,0
18.11.2017 08:00:00 6,2 3,4 5,8 18 10 25 14 SW 1020,3 0,0
18.11.2017 07:00:00 6,3 3,3 5,9 18 10 - - SW 1020,6 0,0
18.11.2017 06:00:00 6,4 3,1 5,8 14 8 25 14 SW 1021,0 0,0
18.11.2017 05:00:00 6,2 3,2 5,7 18 10 25 14 SW 1021,7 0,0
18.11.2017 04:00:00 6,1 3,4 5,4 14 8 - - SW 1022,3 0,0
18.11.2017 03:00:00 6,0 2,8 5,4 14 8 22 12 SW 1023,4 0,0
18.11.2017 02:00:00 5,7 2,8 5,1 11 6 18 10 SW 1023,9 0,0
18.11.2017 01:00:00 5,8 2,8 4,9 11 6 - - SW 1024,6 0,0
18.11.2017 00:00:00 5,3 2,9 4,3 14 8 18 10 SSW 1024,9 0,0
17.11.2017 23:00:00 3,1 1,4 0,4 11 6 14 8 SSW 1025,2 0,0
17.11.2017 22:00:00 2,3 1,3 -0,3 11 6 - - SW 1025,9 0,0
17.11.2017 21:00:00 2,6 1,7 -0,5 7 4 11 6 SW 1025,9 0,0
17.11.2017 20:00:00 2,5 1,3 0,2 4 2 7 4 SW 1026,2 0,0
17.11.2017 19:00:00 4,6 2,3 0,7 7 4 - - SW 1026,4 0,0
17.11.2017 18:00:00 4,6 3,3 2,6 7 4 7 4 W 1026,5 0,0
17.11.2017 17:00:00 4,7 3,0 3,3 11 6 11 6 W 1026,8 0,0
17.11.2017 16:00:00 7,9 3,2 6,2 7 4 - - SW 1026,7 0,0
17.11.2017 15:00:00 9,3 4,2 9,4 4 2 14 8 W 1027,1 0,0
17.11.2017 14:00:00 10,7 2,8 11,7 11 6 18 10 WSW 1027,5 0,0
17.11.2017 13:00:00 9,9 3,9 10,2 7 4 - - W 1027,8 0,0
17.11.2017 12:00:00 10,1 4,8 11,0 4 2 7 4 WSW 1027,8 0,0
17.11.2017 11:00:00 8,4 5,1 8,5 4 2 7 4 W 1028,3 0,0
17.11.2017 10:00:00 5,7 4,7 4,5 4 2 - - S 1028,0 0,0
17.11.2017 09:00:00 2,5 2,2 0,4 4 2 7 4 S 1028,1 0,0
17.11.2017 08:00:00 1,1 1,0 -0,2 4 2 7 4 W 1027,5 0,0
17.11.2017 07:00:00 0,9 0,7 -1,7 4 2 - - NW 1027,1 0,0
17.11.2017 06:00:00 1,7 1,7 -1,2 4 2 7 4 W 1026,7 0,0
17.11.2017 05:00:00 1,7 1,3 -0,5 4 2 7 4 W 1026,4 0,0
17.11.2017 04:00:00 2,4 2,2 0,2 7 4 - - WNW 1026,1 0,0
17.11.2017 03:00:00 2,5 1,9 1,1 7 4 14 8 WNW 1025,8 0,0
17.11.2017 02:00:00 6,4 5,5 4,5 11 6 11 6 NW 1025,4 0,0
17.11.2017 01:00:00 7,5 7,0 6,6 11 6 - - NW 1024,9 0,0
17.11.2017 00:00:00 8,8 8,2 8,4 7 4 11 6 WNW 1024,6 0,0
16.11.2017 23:00:00 9,2 8,8 9,1 7 4 29 16 NNW 1024,2 1,1
16.11.2017 22:00:00 10,0 9,5 9,8 11 6 - - W 1023,5 0,2
16.11.2017 21:00:00 9,2 8,6 8,4 11 6 18 10 SW 1022,9 0,0
16.11.2017 20:00:00 10,1 9,3 9,7 14 8 18 10 SW 1022,7 0,0
16.11.2017 19:00:00 9,9 9,1 9,6 14 8 - - SSW 1022,3 0,0
16.11.2017 18:00:00 10,1 9,4 9,8 11 6 18 10 SW 1022,3 0,0
16.11.2017 17:00:00 10,1 9,4 9,9 11 6 18 10 SW 1022,0 0,0
16.11.2017 16:00:00 9,8 9,2 9,8 11 6 - - SSW 1021,8 0,0
16.11.2017 15:00:00 9,6 9,1 9,7 14 8 25 14 SSW 1021,9 0,0
16.11.2017 14:00:00 9,5 8,9 9,6 14 8 22 12 SSW 1022,2 0,0
16.11.2017 13:00:00 9,3 8,6 9,4 14 8 - - SSW 1022,4 0,0
16.11.2017 12:00:00 9,1 8,5 9,2 14 8 18 10 SSW 1022,8 0,0
16.11.2017 11:00:00 8,7 8,3 8,8 11 6 22 12 SSW 1023,2 0,2
16.11.2017 10:00:00 8,8 8,1 8,8 11 6 - - S 1022,9 0,0
16.11.2017 09:00:00 8,8 7,9 8,7 14 8 18 10 S 1023,0 0,0
16.11.2017 08:00:00 8,9 8,1 8,7 11 6 18 10 S 1022,6 0,0
16.11.2017 07:00:00 8,9 8,3 8,8 14 8 - - S 1022,5 0,0
16.11.2017 06:00:00 8,9 8,3 8,8 14 8 25 14 S 1022,5 0,0
16.11.2017 05:00:00 9,0 8,6 8,9 11 6 22 12 S 1022,9 0,0
16.11.2017 04:00:00 9,1 8,5 9,0 14 8 - - SSW 1023,3 0,2
16.11.2017 03:00:00 9,2 8,8 9,2 11 6 14 8 SSW 1023,6 0,1
16.11.2017 02:00:00 9,3 8,7 9,2 11 6 18 10 S 1023,6 0,0
16.11.2017 01:00:00 9,4 8,9 9,3 11 6 - - S 1023,9 0,7
16.11.2017 00:00:00 9,4 9,1 9,4 7 4 11 6 S 1024,4 0,0
15.11.2017 23:00:00 9,6 9,2 9,5 7 4 11 6 S 1024,6 0,0
15.11.2017 22:00:00 9,7 9,3 9,7 7 4 - - S 1024,9 0,0
15.11.2017 21:00:00 9,7 9,5 9,6 11 6 14 8 S 1024,8 0,1
15.11.2017 20:00:00 9,6 9,2 9,5 7 4 11 6 S 1024,8 0,0
15.11.2017 19:00:00 9,7 9,1 9,6 7 4 - - S 1025,0 0,0
15.11.2017 18:00:00 9,8 9,2 9,7 7 4 14 8 S 1024,8 0,0
15.11.2017 17:00:00 10,0 9,2 9,9 7 4 14 8 S 1025,0 0,0
15.11.2017 16:00:00 10,2 9,3 10,2 7 4 - - S 1024,9 0,0
15.11.2017 15:00:00 10,3 9,5 10,5 7 4 14 8 S 1024,8 0,0
15.11.2017 14:00:00 10,2 9,3 10,4 7 4 14 8 S 1024,8 0,0
15.11.2017 13:00:00 10,0 9,0 10,2 11 6 - - S 1025,1 0,0
15.11.2017 12:00:00 9,8 8,9 10,0 11 6 18 10 SSW 1025,3 0,0
15.11.2017 11:00:00 9,2 8,5 9,3 11 6 18 10 SSW 1025,5 0,0
15.11.2017 10:00:00 8,8 8,3 8,8 11 6 - - S 1025,3 0,0
15.11.2017 09:00:00 8,4 8,0 8,4 11 6 14 8 S 1025,1 0,0
15.11.2017 08:00:00 8,3 7,9 8,2 7 4 14 8 S 1024,8 0,0
15.11.2017 07:00:00 8,2 7,8 8,2 11 6 - - S 1024,4 0,2
15.11.2017 06:00:00 8,2 7,7 8,1 14 8 22 12 S 1024,3 0,2
15.11.2017 05:00:00 8,2 7,8 8,2 14 8 22 12 SSW 1024,2 0,0
15.11.2017 04:00:00 8,3 7,5 8,1 18 10 - - SSW 1024,2 0,0
15.11.2017 03:00:00 8,2 7,5 8,1 11 6 22 12 S 1024,5 0,0
15.11.2017 02:00:00 8,3 7,4 8,1 11 6 25 14 SSW 1024,7 0,0
15.11.2017 01:00:00 8,4 7,7 8,3 14 8 - - SSW 1024,5 0,0
15.11.2017 00:00:00 8,6 7,9 8,5 14 8 22 12 SSW 1024,5 0,1
14.11.2017 23:00:00 8,7 7,9 8,5 14 8 22 12 SSW 1024,3 0,0
14.11.2017 22:00:00 8,4 7,7 8,2 11 6 - - SSW 1024,3 0,0
14.11.2017 21:00:00 8,3 7,6 8,2 14 8 25 14 SSW 1024,2 0,0
14.11.2017 20:00:00 8,2 7,5 8,1 14 8 22 12 SW 1024,0 0,0
14.11.2017 19:00:00 8,2 7,6 8,1 14 8 - - SSW 1023,7 0,0
14.11.2017 18:00:00 8,3 7,6 8,2 18 10 25 14 SSW 1023,4 0,0
14.11.2017 17:00:00 8,4 7,4 8,3 18 10 29 16 SW 1023,0 0,0
14.11.2017 16:00:00 8,8 6,9 8,6 22 12 - - SW 1023,0 0,0
14.11.2017 15:00:00 8,9 6,0 8,7 22 12 32 18 SW 1022,6 0,0
14.11.2017 14:00:00 8,8 5,5 8,7 18 10 36 19 SSW 1022,8 0,0
14.11.2017 13:00:00 8,5 5,1 8,3 22 12 - - SW 1022,8 0,0
14.11.2017 12:00:00 8,1 4,6 8,1 22 12 32 18 SSW 1023,1 0,0
14.11.2017 11:00:00 7,8 4,2 7,6 22 12 - - SSW 1023,5 0,0
14.11.2017 10:00:00 - - - 22 12 - - SW 1023,2 -
14.11.2017 09:00:00 6,0 4,4 5,3 18 10 29 16 SSW 1023,0 0,0
14.11.2017 08:00:00 5,8 4,7 5,4 14 8 22 12 SSW 1023,0 0,0
14.11.2017 07:00:00 5,6 4,4 5,0 14 8 - - SW 1022,8 0,0
14.11.2017 06:00:00 4,6 3,5 3,6 11 6 22 12 SSW 1022,6 0,0
14.11.2017 05:00:00 5,2 4,2 4,5 14 8 18 10 SSW 1022,8 0,0
14.11.2017 04:00:00 4,2 3,4 2,9 11 6 - - SSW 1023,1 0,0
14.11.2017 03:00:00 4,1 3,5 1,8 7 4 14 8 SW 1023,4 0,0
14.11.2017 02:00:00 2,8 2,7 1,2 4 2 11 6 WSW 1023,4 0,0
14.11.2017 01:00:00 1,4 1,0 0,0 7 4 - - SW 1023,5 0,0

tt = Température de l'air
td = dewpoint
tt 5cm = Température de l'air 5cm
ff = Vitesse du vent
fx = gusts
dd = Direction du vent
ppp = reduced air pressure
rr = Quantités de précipitations

stations d'obs. à proximité